Time;durP1;ratioP1;P1;durP2;ratioP2;P2;SDS_P1;SDS_P2;PMS_P1;PMS_P2;Temp;Humidity;BMP_temperature;BMP_pressure;BME280_temperature;BME280_humidity;BME280_pressure;Samples;Min_cycle;Max_cycle;Signal;HPM_P1;HPM_P2
2023/11/10 00:01:17;;;;;;;11.40;5.65;;;;;;;;;;5862484;28;20219;-73
2023/11/10 00:04:07;;;;;;;5.65;4.28;;;;;;;;;;5863341;28;20049;-72
2023/11/10 00:06:58;;;;;;;11.80;4.47;;;;;;;;;;5862986;28;20484;-73
2023/11/10 00:09:49;;;;;;;4.55;3.45;;;;;;;;;;5863025;28;20048;-73
2023/11/10 00:12:40;;;;;;;4.82;3.17;;;;;;;;;;5862002;28;20049;-73
2023/11/10 00:15:31;;;;;;;5.30;3.92;;;;;;;;;;5862965;28;20053;-73
2023/11/10 00:18:21;;;;;;;10.55;5.40;;;;;;;;;;5862673;28;20519;-72
2023/11/10 00:21:19;;;;;;;13.57;7.00;;;;;;;;;;5862449;28;20045;-73
2023/11/10 00:24:12;;;;;;;7.10;3.45;;;;;;;;;;5861370;28;20093;-72
2023/11/10 00:27:03;;;;;;;11.02;5.57;;;;;;;;;;5861865;28;20077;-72
2023/11/10 00:29:54;;;;;;;17.40;4.63;;;;;;;;;;5863219;28;20414;-72
2023/11/10 00:32:45;;;;;;;3.03;2.63;;;;;;;;;;5862244;28;20522;-73
2023/11/10 00:35:37;;;;;;;14.00;3.20;;;;;;;;;;5861966;28;20107;-73
2023/11/10 00:38:28;;;;;;;15.35;4.70;;;;;;;;;;5862437;28;20045;-72
2023/11/10 00:41:22;;;;;;;7.70;4.65;;;;;;;;;;5861994;28;20518;-73
2023/11/10 00:44:13;;;;;;;5.35;3.38;;;;;;;;;;5862360;28;20061;-72
2023/11/10 00:47:04;;;;;;;4.60;2.25;;;;;;;;;;5861928;28;20128;-72
2023/11/10 00:49:55;;;;;;;2.85;2.08;;;;;;;;;;5863111;28;20060;-73
2023/11/10 00:52:45;;;;;;;3.33;2.17;;;;;;;;;;5861737;28;20056;-73
2023/11/10 00:55:36;;;;;;;5.53;3.35;;;;;;;;;;5861703;28;20064;-73
2023/11/10 00:58:27;;;;;;;4.10;3.22;;;;;;;;;;5861985;28;20046;-72
2023/11/10 01:01:17;;;;;;;3.80;2.95;;;;;;;;;;5867963;28;20044;-72
2023/11/10 01:04:08;;;;;;;5.80;4.32;;;;;;;;;;5871502;28;20052;-72
2023/11/10 01:06:59;;;;;;;2.53;1.90;;;;;;;;;;5862125;28;20049;-73
2023/11/10 01:09:50;;;;;;;3.30;2.47;;;;;;;;;;5862533;28;20045;-72
2023/11/10 01:12:41;;;;;;;4.63;3.00;;;;;;;;;;5861790;28;20050;-72
2023/11/10 01:15:32;;;;;;;4.88;2.35;;;;;;;;;;5861734;28;20041;-73
2023/11/10 01:18:23;;;;;;;2.83;2.38;;;;;;;;;;5862128;28;20538;-73
2023/11/10 01:21:14;;;;;;;7.50;2.17;;;;;;;;;;5861986;28;20537;-72
2023/11/10 01:24:06;;;;;;;2.85;2.03;;;;;;;;;;5862018;28;20085;-72
2023/11/10 01:26:56;;;;;;;2.70;2.38;;;;;;;;;;5861648;28;20049;-73
2023/11/10 01:29:47;;;;;;;2.58;2.38;;;;;;;;;;5862021;28;20049;-73
2023/11/10 01:32:38;;;;;;;2.33;2.00;;;;;;;;;;5861622;28;20053;-72
2023/11/10 01:35:29;;;;;;;6.47;1.95;;;;;;;;;;5862765;28;20095;-72
2023/11/10 01:38:20;;;;;;;3.00;2.75;;;;;;;;;;5865443;28;20049;-72
2023/11/10 01:41:11;;;;;;;2.40;2.00;;;;;;;;;;5864292;28;20042;-72
2023/11/10 01:44:02;;;;;;;13.55;2.90;;;;;;;;;;5864570;28;20056;-72
2023/11/10 01:46:53;;;;;;;2.70;2.47;;;;;;;;;;5865951;28;20517;-73
2023/11/10 01:49:44;;;;;;;3.42;2.00;;;;;;;;;;5865972;28;20874;-73
2023/11/10 01:52:35;;;;;;;6.03;3.22;;;;;;;;;;5865135;28;20135;-72
2023/11/10 01:55:27;;;;;;;3.33;1.98;;;;;;;;;;5864990;28;20052;-73
2023/11/10 01:58:18;;;;;;;3.22;1.58;;;;;;;;;;5865468;28;20057;-72
2023/11/10 02:01:11;;;;;;;4.55;1.58;;;;;;;;;;5864105;28;20057;-72
2023/11/10 02:04:03;;;;;;;3.22;1.75;;;;;;;;;;5865024;28;20052;-72
2023/11/10 02:06:54;;;;;;;1.60;1.40;;;;;;;;;;5865390;28;20049;-72
2023/11/10 02:09:45;;;;;;;2.28;1.00;;;;;;;;;;5865358;28;20053;-73
2023/11/10 02:12:36;;;;;;;2.25;1.52;;;;;;;;;;5863391;28;20414;-73
2023/11/10 02:15:30;;;;;;;2.40;1.92;;;;;;;;;;5864779;28;20068;-72
2023/11/10 02:18:20;;;;;;;1.85;1.73;;;;;;;;;;5865033;28;20811;-72
2023/11/10 02:21:11;;;;;;;1.60;1.50;;;;;;;;;;5865011;28;20446;-72
2023/11/10 02:24:07;;;;;;;1.48;1.38;;;;;;;;;;5864781;28;20058;-72
2023/11/10 02:26:58;;;;;;;3.10;1.95;;;;;;;;;;5865078;28;20049;-72
2023/11/10 02:29:49;;;;;;;2.47;2.15;;;;;;;;;;5865243;28;20049;-72
2023/11/10 02:32:42;;;;;;;2.38;1.52;;;;;;;;;;5864461;28;20513;-73
2023/11/10 02:35:33;;;;;;;3.00;2.40;;;;;;;;;;5864352;28;20084;-73
2023/11/10 02:38:24;;;;;;;3.70;2.25;;;;;;;;;;5864753;28;20049;-73
2023/11/10 02:41:15;;;;;;;1.65;1.55;;;;;;;;;;5864360;28;20053;-72
2023/11/10 02:44:06;;;;;;;2.47;2.10;;;;;;;;;;5864818;28;20053;-72
2023/11/10 02:46:56;;;;;;;0.80;0.80;;;;;;;;;;5864259;28;20045;-73
2023/11/10 02:49:47;;;;;;;1.27;1.00;;;;;;;;;;5863272;28;20413;-73
2023/11/10 02:52:38;;;;;;;1.55;1.45;;;;;;;;;;5864161;28;20049;-73
2023/11/10 02:55:29;;;;;;;3.72;1.80;;;;;;;;;;5864219;28;20045;-73
2023/11/10 02:58:19;;;;;;;5.22;1.92;;;;;;;;;;5864227;28;20053;-73
2023/11/10 03:01:10;;;;;;;4.38;1.17;;;;;;;;;;5863698;28;20057;-72
2023/11/10 03:04:01;;;;;;;2.30;1.80;;;;;;;;;;5864236;28;20056;-72
2023/11/10 03:06:52;;;;;;;1.58;1.00;;;;;;;;;;5864213;28;20418;-72
2023/11/10 03:09:44;;;;;;;3.50;2.22;;;;;;;;;;5863605;28;20045;-73
2023/11/10 03:12:35;;;;;;;1.38;1.25;;;;;;;;;;5863315;28;20056;-73
2023/11/10 03:15:27;;;;;;;2.58;1.45;;;;;;;;;;5863836;28;20099;-72
2023/11/10 03:18:18;;;;;;;2.38;1.90;;;;;;;;;;5863624;28;20415;-73
2023/11/10 03:21:16;;;;;;;2.67;1.20;;;;;;;;;;5863386;28;20107;-72
2023/11/10 03:24:07;;;;;;;3.50;1.90;;;;;;;;;;5863796;28;20046;-72
2023/11/10 03:26:58;;;;;;;2.17;1.85;;;;;;;;;;5863505;28;20052;-72
2023/11/10 03:29:50;;;;;;;4.10;2.15;;;;;;;;;;5863284;28;20053;-73
2023/11/10 03:32:41;;;;;;;3.00;2.58;;;;;;;;;;5863098;28;20056;-73
2023/11/10 03:35:32;;;;;;;3.72;1.95;;;;;;;;;;5863287;28;20403;-73
2023/11/10 03:38:23;;;;;;;1.33;0.85;;;;;;;;;;5863167;28;20049;-73
2023/11/10 03:41:14;;;;;;;6.10;2.40;;;;;;;;;;5862657;28;20056;-72
2023/11/10 03:44:05;;;;;;;1.65;1.33;;;;;;;;;;5863690;28;20041;-72
2023/11/10 03:46:56;;;;;;;2.30;2.03;;;;;;;;;;5863440;28;20049;-73
2023/11/10 03:49:47;;;;;;;2.78;2.35;;;;;;;;;;5863130;28;20132;-73
2023/11/10 03:52:38;;;;;;;3.58;1.90;;;;;;;;;;5862725;28;20053;-73
2023/11/10 03:55:28;;;;;;;2.05;1.83;;;;;;;;;;5862807;28;20056;-72
2023/11/10 03:58:19;;;;;;;3.47;1.20;;;;;;;;;;5862487;28;20049;-73
2023/11/10 04:01:13;;;;;;;5.38;1.92;;;;;;;;;;5862196;28;20056;-72
2023/11/10 04:04:07;;;;;;;2.22;1.33;;;;;;;;;;5862982;28;20046;-72
2023/11/10 04:06:58;;;;;;;5.35;2.65;;;;;;;;;;5862852;28;20057;-72
2023/11/10 04:09:49;;;;;;;1.98;1.80;;;;;;;;;;5863074;28;20107;-72
2023/11/10 04:12:40;;;;;;;6.55;1.40;;;;;;;;;;5861784;28;20046;-73
2023/11/10 04:15:31;;;;;;;1.08;0.85;;;;;;;;;;5862716;28;20060;-73
2023/11/10 04:18:26;;;;;;;1.58;1.48;;;;;;;;;;5862787;28;20523;-72
2023/11/10 04:21:22;;;;;;;5.00;1.48;;;;;;;;;;5862284;28;20060;-73
2023/11/10 04:24:13;;;;;;;21.55;2.55;;;;;;;;;;5861335;28;20541;-72
2023/11/10 04:27:04;;;;;;;3.75;1.90;;;;;;;;;;5862232;28;20415;-72
2023/11/10 04:29:55;;;;;;;9.82;1.67;;;;;;;;;;5863359;28;20530;-72
2023/11/10 04:32:47;;;;;;;2.10;1.92;;;;;;;;;;5861830;28;20076;-72
2023/11/10 04:35:41;;;;;;;2.55;2.00;;;;;;;;;;5862464;28;20406;-72
2023/11/10 04:38:33;;;;;;;4.47;2.58;;;;;;;;;;5862583;28;20068;-73
2023/11/10 04:41:24;;;;;;;2.83;1.98;;;;;;;;;;5862043;28;20407;-73
2023/11/10 04:44:16;;;;;;;2.15;1.50;;;;;;;;;;5862501;28;20423;-72
2023/11/10 04:47:06;;;;;;;0.90;0.90;;;;;;;;;;5862426;28;20057;-73
2023/11/10 04:49:57;;;;;;;7.18;3.05;;;;;;;;;;5861762;28;20054;-73
2023/11/10 04:52:48;;;;;;;6.28;3.30;;;;;;;;;;5861749;28;20060;-72
2023/11/10 04:55:42;;;;;;;5.72;2.47;;;;;;;;;;5862056;28;20479;-72
2023/11/10 04:58:34;;;;;;;4.15;2.17;;;;;;;;;;5862236;28;20438;-72
2023/11/10 05:01:26;;;;;;;2.47;2.28;;;;;;;;;;5861669;28;20056;-72
2023/11/10 05:04:17;;;;;;;4.22;3.05;;;;;;;;;;5862385;28;20426;-72
2023/11/10 05:07:08;;;;;;;14.65;2.97;;;;;;;;;;5862167;28;20056;-72
2023/11/10 05:10:00;;;;;;;3.05;2.78;;;;;;;;;;5862952;28;20053;-72
2023/11/10 05:12:52;;;;;;;2.60;2.00;;;;;;;;;;5866066;28;20521;-73
2023/11/10 05:15:43;;;;;;;9.35;2.85;;;;;;;;;;5866382;28;20083;-73
2023/11/10 05:18:34;;;;;;;4.65;2.10;;;;;;;;;;5866239;28;20098;-73
2023/11/10 05:21:28;;;;;;;6.07;2.30;;;;;;;;;;5864565;28;20064;-73
2023/11/10 05:24:19;;;;;;;3.92;2.38;;;;;;;;;;5866268;28;20049;-73
2023/11/10 05:27:10;;;;;;;9.68;2.95;;;;;;;;;;5866029;28;20123;-72
2023/11/10 05:30:01;;;;;;;3.50;2.45;;;;;;;;;;5866813;28;20046;-71
2023/11/10 05:32:52;;;;;;;3.35;2.92;;;;;;;;;;5866181;28;20376;-72
2023/11/10 05:35:43;;;;;;;5.50;3.33;;;;;;;;;;5865953;28;20060;-73
2023/11/10 05:38:33;;;;;;;3.75;2.83;;;;;;;;;;5865769;28;20049;-73
2023/11/10 05:41:24;;;;;;;5.47;2.92;;;;;;;;;;5865364;28;20072;-72
2023/11/10 05:44:15;;;;;;;3.70;2.90;;;;;;;;;;5865739;28;20064;-72
2023/11/10 05:47:06;;;;;;;5.13;1.40;;;;;;;;;;5865809;28;20053;-72
2023/11/10 05:49:57;;;;;;;4.25;2.47;;;;;;;;;;5866433;28;20355;-73
2023/11/10 05:52:49;;;;;;;5.20;3.08;;;;;;;;;;5863627;28;20060;-72
2023/11/10 05:55:40;;;;;;;5.20;3.25;;;;;;;;;;5865227;28;20406;-73
2023/11/10 05:58:31;;;;;;;14.23;3.65;;;;;;;;;;5865289;28;20049;-73
2023/11/10 06:01:28;;;;;;;10.80;4.18;;;;;;;;;;5865321;28;20422;-73
2023/11/10 06:04:19;;;;;;;4.97;3.13;;;;;;;;;;5865480;28;20136;-73
2023/11/10 06:07:21;;;;;;;5.25;3.05;;;;;;;;;;5865397;28;20071;-73
2023/11/10 06:10:12;;;;;;;8.05;6.78;;;;;;;;;;5865429;28;20049;-72
2023/11/10 06:13:04;;;;;;;10.13;3.90;;;;;;;;;;5864596;28;20053;-72
2023/11/10 06:15:56;;;;;;;7.40;4.03;;;;;;;;;;5865464;28;20045;-72
2023/11/10 06:18:47;;;;;;;5.72;4.28;;;;;;;;;;5865435;28;20574;-73
2023/11/10 06:21:38;;;;;;;13.60;6.65;;;;;;;;;;5864080;28;20041;-73
2023/11/10 06:24:29;;;;;;;4.80;4.40;;;;;;;;;;5865024;28;20061;-73
2023/11/10 06:27:21;;;;;;;13.23;5.68;;;;;;;;;;5864746;28;20053;-73
2023/11/10 06:30:12;;;;;;;7.30;5.13;;;;;;;;;;5865319;28;20419;-72
2023/11/10 06:33:03;;;;;;;7.80;4.00;;;;;;;;;;5864228;28;20507;-72
2023/11/10 06:35:54;;;;;;;9.77;4.25;;;;;;;;;;5865121;28;20053;-73
2023/11/10 06:38:46;;;;;;;5.45;4.07;;;;;;;;;;5864622;28;20053;-73
2023/11/10 06:41:37;;;;;;;10.98;5.07;;;;;;;;;;5864099;28;20053;-73
2023/11/10 06:44:28;;;;;;;10.23;4.88;;;;;;;;;;5864599;28;20052;-73
2023/11/10 06:47:18;;;;;;;7.97;4.35;;;;;;;;;;5864358;28;20046;-72
2023/11/10 06:50:09;;;;;;;4.82;3.42;;;;;;;;;;5864660;28;20128;-72
2023/11/10 06:53:00;;;;;;;9.10;4.18;;;;;;;;;;5864136;28;20068;-72
2023/11/10 06:55:51;;;;;;;12.95;3.88;;;;;;;;;;5864125;28;20042;-73
2023/11/10 06:58:41;;;;;;;4.15;3.58;;;;;;;;;;5864142;28;20045;-72
2023/11/10 07:01:32;;;;;;;5.40;4.45;;;;;;;;;;5864057;28;20522;-73
2023/11/10 07:04:23;;;;;;;7.00;4.30;;;;;;;;;;5863669;28;20124;-72
2023/11/10 07:07:14;;;;;;;8.40;4.55;;;;;;;;;;5863887;28;20499;-72
2023/11/10 07:10:07;;;;;;;5.15;4.57;;;;;;;;;;5864031;28;20053;-72
2023/11/10 07:12:58;;;;;;;27.27;5.63;;;;;;;;;;5863469;28;20045;-72
2023/11/10 07:15:49;;;;;;;7.43;3.25;;;;;;;;;;5863807;28;20136;-72
2023/11/10 07:18:40;;;;;;;3.17;2.83;;;;;;;;;;5863692;28;20061;-72
2023/11/10 07:21:31;;;;;;;9.15;4.15;;;;;;;;;;5863618;28;20077;-73
2023/11/10 07:24:22;;;;;;;4.35;3.17;;;;;;;;;;5863171;28;20049;-72
2023/11/10 07:27:13;;;;;;;4.70;4.05;;;;;;;;;;5863057;28;20125;-73
2023/11/10 07:30:05;;;;;;;4.03;3.53;;;;;;;;;;5863806;28;20045;-72
2023/11/10 07:32:56;;;;;;;9.38;4.95;;;;;;;;;;5862502;28;20049;-73
2023/11/10 07:35:47;;;;;;;8.82;4.40;;;;;;;;;;5863495;28;20463;-72
2023/11/10 07:38:39;;;;;;;9.48;4.85;;;;;;;;;;5863153;28;20049;-72
2023/11/10 07:41:30;;;;;;;4.93;4.20;;;;;;;;;;5863118;28;20045;-72
2023/11/10 07:44:20;;;;;;;5.00;4.50;;;;;;;;;;5862821;28;20411;-72
2023/11/10 07:47:11;;;;;;;4.15;3.20;;;;;;;;;;5863163;28;20448;-72
2023/11/10 07:50:03;;;;;;;8.60;3.65;;;;;;;;;;5863796;28;20506;-72
2023/11/10 07:52:54;;;;;;;11.25;5.53;;;;;;;;;;5863053;28;20041;-72
2023/11/10 07:55:45;;;;;;;4.68;3.22;;;;;;;;;;5862742;28;20515;-73
2023/11/10 07:58:36;;;;;;;16.75;3.58;;;;;;;;;;5863061;28;20080;-73
2023/11/10 08:01:26;;;;;;;3.25;2.63;;;;;;;;;;5863039;28;20056;-72
2023/11/10 08:04:17;;;;;;;8.27;4.00;;;;;;;;;;5862477;28;20057;-72
2023/11/10 08:07:10;;;;;;;21.33;10.93;;;;;;;;;;5863016;28;20577;-72
2023/11/10 08:10:02;;;;;;;36.90;23.45;;;;;;;;;;5863516;28;20483;-73
2023/11/10 08:12:55;;;;;;;90.22;44.65;;;;;;;;;;5862710;28;20128;-73
2023/11/10 08:15:47;;;;;;;36.97;19.77;;;;;;;;;;5862997;28;20107;-73
2023/11/10 08:18:38;;;;;;;6.55;3.58;;;;;;;;;;5862613;28;20100;-73
2023/11/10 08:21:30;;;;;;;19.92;2.97;;;;;;;;;;5862527;28;20060;-73
2023/11/10 08:24:27;;;;;;;7.32;2.75;;;;;;;;;;5862267;28;20046;-73
2023/11/10 08:27:17;;;;;;;61.08;23.55;;;;;;;;;;5862230;28;20061;-73
2023/11/10 08:30:09;;;;;;;156.68;54.60;;;;;;;;;;5862730;28;20052;-73
2023/11/10 08:33:00;;;;;;;161.85;72.32;;;;;;;;;;5862087;28;20052;-72
2023/11/10 08:35:52;;;;;;;128.65;57.90;;;;;;;;;;5862944;28;20041;-73
2023/11/10 08:38:43;;;;;;;28.08;12.45;;;;;;;;;;5862451;28;20458;-73
2023/11/10 08:41:34;;;;;;;35.15;14.60;;;;;;;;;;5862085;28;20188;-73
2023/11/10 08:44:26;;;;;;;11.77;5.05;;;;;;;;;;5863164;28;20049;-73
2023/11/10 08:47:17;;;;;;;5.85;2.10;;;;;;;;;;5866825;28;20092;-73
2023/11/10 08:50:12;;;;;;;1.83;1.55;;;;;;;;;;5867207;28;20050;-72
2023/11/10 08:53:03;;;;;;;1.70;1.15;;;;;;;;;;5866937;28;20499;-73
2023/11/10 08:55:54;;;;;;;1.73;1.45;;;;;;;;;;5866561;28;20056;-73
2023/11/10 08:58:45;;;;;;;2.17;1.77;;;;;;;;;;5865650;28;20061;-73
2023/11/10 09:01:36;;;;;;;2.85;1.77;;;;;;;;;;5866716;28;20561;-73
2023/11/10 09:04:28;;;;;;;4.90;1.00;;;;;;;;;;5866409;28;20748;-73
2023/11/10 09:07:19;;;;;;;3.58;1.95;;;;;;;;;;5866782;28;20080;-73
2023/11/10 09:10:11;;;;;;;6.43;1.30;;;;;;;;;;5866897;28;20045;-73
2023/11/10 09:13:03;;;;;;;1.92;1.60;;;;;;;;;;5866375;28;20126;-72
2023/11/10 09:15:54;;;;;;;2.15;1.75;;;;;;;;;;5866383;28;20076;-73
2023/11/10 09:18:53;;;;;;;3.78;2.05;;;;;;;;;;5866627;28;20125;-73
2023/11/10 09:21:44;;;;;;;13.30;1.73;;;;;;;;;;5866448;28;20053;-73
2023/11/10 09:24:35;;;;;;;7.70;2.10;;;;;;;;;;5865887;28;20064;-73
2023/11/10 09:27:25;;;;;;;6.32;2.40;;;;;;;;;;5865845;28;20069;-73
2023/11/10 09:30:16;;;;;;;3.47;1.67;;;;;;;;;;5867408;28;20049;-73
2023/11/10 09:33:08;;;;;;;4.07;2.05;;;;;;;;;;5866023;28;20522;-73
2023/11/10 09:35:59;;;;;;;5.65;3.03;;;;;;;;;;5866180;28;20045;-73
2023/11/10 09:38:52;;;;;;;3.58;2.20;;;;;;;;;;5866337;28;20053;-73
2023/11/10 09:41:48;;;;;;;5.20;1.92;;;;;;;;;;5865710;28;20499;-73
2023/11/10 09:44:59;;;;;;;4.30;2.47;;;;;;;;;;5863901;28;20049;-73
2023/11/10 09:47:54;;;;;;;2.05;1.80;;;;;;;;;;5866011;28;20056;-73
2023/11/10 09:50:48;;;;;;;6.70;2.28;;;;;;;;;;5865773;28;20150;-73
2023/11/10 09:53:40;;;;;;;13.45;4.47;;;;;;;;;;5865930;28;20522;-73
2023/11/10 09:56:35;;;;;;;2.65;1.90;;;;;;;;;;5863948;28;20492;-73
2023/11/10 09:59:28;;;;;;;9.75;2.22;;;;;;;;;;5864463;28;20127;-73
2023/11/10 10:02:18;;;;;;;2.72;1.48;;;;;;;;;;5865285;28;20061;-73
2023/11/10 10:05:09;;;;;;;6.25;1.77;;;;;;;;;;5865469;28;20368;-73
2023/11/10 10:08:00;;;;;;;8.13;3.13;;;;;;;;;;5865258;28;20041;-72
2023/11/10 10:10:52;;;;;;;2.50;1.65;;;;;;;;;;5863903;28;20085;-73
2023/11/10 10:13:43;;;;;;;1.20;1.02;;;;;;;;;;5865458;28;20046;-73
2023/11/10 10:16:33;;;;;;;3.17;2.05;;;;;;;;;;5864674;28;20051;-73
2023/11/10 10:19:29;;;;;;;4.75;1.65;;;;;;;;;;5865329;28;20176;-73
2023/11/10 10:22:24;;;;;;;5.95;2.65;;;;;;;;;;5864900;28;20649;-73
2023/11/10 10:25:20;;;;;;;2.40;1.20;;;;;;;;;;5872672;28;20052;-73
2023/11/10 10:28:11;;;;;;;1.45;1.08;;;;;;;;;;5865087;28;20050;-73
2023/11/10 10:31:03;;;;;;;3.17;1.40;;;;;;;;;;5864800;28;20045;-73
2023/11/10 10:33:55;;;;;;;2.67;1.77;;;;;;;;;;5865642;28;20160;-73
2023/11/10 10:36:46;;;;;;;1.30;1.20;;;;;;;;;;5864024;28;20136;-73
2023/11/10 10:39:42;;;;;;;5.40;1.85;;;;;;;;;;5863479;28;20060;-73
2023/11/10 10:42:35;;;;;;;1.17;0.90;;;;;;;;;;5862875;28;20107;-73
2023/11/10 10:45:26;;;;;;;2.35;1.95;;;;;;;;;;5871121;28;20055;-73
2023/11/10 10:48:24;;;;;;;2.22;1.75;;;;;;;;;;5863380;28;20124;-73
2023/11/10 10:51:18;;;;;;;1.83;1.65;;;;;;;;;;5863624;28;20169;-73
2023/11/10 10:54:16;;;;;;;2.08;1.60;;;;;;;;;;5864419;28;20049;-73
2023/11/10 10:57:07;;;;;;;3.47;1.38;;;;;;;;;;5883945;28;20499;-73
2023/11/10 10:59:58;;;;;;;7.78;1.25;;;;;;;;;;5886683;28;20041;-73
2023/11/10 11:02:58;;;;;;;2.70;1.05;;;;;;;;;;5885648;28;20037;-74
2023/11/10 11:06:20;;;;;;;1.55;1.25;;;;;;;;;;5885729;28;20041;-73
2023/11/10 11:09:46;;;;;;;2.67;1.40;;;;;;;;;;5879964;28;20049;-73
2023/11/10 11:13:36;;;;;;;2.28;1.55;;;;;;;;;;5884883;28;20524;-73
2023/11/10 11:16:48;;;;;;;0.93;0.85;;;;;;;;;;5886408;28;20408;-73
2023/11/10 11:19:39;;;;;;;2.10;1.45;;;;;;;;;;5886064;28;20118;-73
2023/11/10 11:22:32;;;;;;;2.33;1.08;;;;;;;;;;5885293;28;20049;-73
2023/11/10 11:25:23;;;;;;;3.35;0.95;;;;;;;;;;5884880;28;20055;-73
2023/11/10 11:28:35;;;;;;;3.20;2.13;;;;;;;;;;5887084;28;20414;-73
2023/11/10 11:31:26;;;;;;;1.38;0.82;;;;;;;;;;5886945;28;20056;-73
2023/11/10 11:34:21;;;;;;;4.13;1.13;;;;;;;;;;5886745;28;20502;-73
2023/11/10 11:37:12;;;;;;;3.92;1.77;;;;;;;;;;5886196;28;20056;-73
2023/11/10 11:40:08;;;;;;;6.72;1.67;;;;;;;;;;5886841;28;20045;-73
2023/11/10 11:43:09;;;;;;;1.67;1.35;;;;;;;;;;5886460;28;20135;-73
2023/11/10 11:46:03;;;;;;;1.75;1.25;;;;;;;;;;5886284;28;20041;-73
2023/11/10 11:48:54;;;;;;;2.47;1.70;;;;;;;;;;5901857;28;20048;-73
2023/11/10 11:51:46;;;;;;;42.58;18.48;;;;;;;;;;5886161;28;20053;-73
2023/11/10 11:54:37;;;;;;;10.80;6.05;;;;;;;;;;5886365;28;20053;-73
2023/11/10 11:57:30;;;;;;;12.05;5.93;;;;;;;;;;5885547;28;20048;-73
2023/11/10 12:00:22;;;;;;;12.45;3.88;;;;;;;;;;5886170;28;20081;-73
2023/11/10 12:03:14;;;;;;;6.18;2.78;;;;;;;;;;5886160;28;20052;-73
2023/11/10 12:06:05;;;;;;;1.35;1.23;;;;;;;;;;5885763;28;20110;-73
2023/11/10 12:08:56;;;;;;;3.22;2.28;;;;;;;;;;5886563;28;20045;-73
2023/11/10 12:11:47;;;;;;;3.20;1.33;;;;;;;;;;5885511;28;20068;-73
2023/11/10 12:14:38;;;;;;;4.75;2.10;;;;;;;;;;5886258;28;20060;-73
2023/11/10 12:17:29;;;;;;;9.02;5.03;;;;;;;;;;5885561;28;20056;-73
2023/11/10 12:20:22;;;;;;;9.68;4.30;;;;;;;;;;5884307;28;20453;-73
2023/11/10 12:23:16;;;;;;;35.30;17.85;;;;;;;;;;5862642;28;20395;-73
2023/11/10 12:26:07;;;;;;;8.00;5.25;;;;;;;;;;5860878;28;20049;-73
2023/11/10 12:28:59;;;;;;;5.93;4.07;;;;;;;;;;5863073;28;20045;-73
2023/11/10 12:31:50;;;;;;;31.23;16.23;;;;;;;;;;5861233;28;20065;-73
2023/11/10 12:34:41;;;;;;;13.43;7.88;;;;;;;;;;5862602;28;20495;-73
2023/11/10 12:37:32;;;;;;;8.57;5.82;;;;;;;;;;5862297;28;20171;-73
2023/11/10 12:40:25;;;;;;;5.82;3.67;;;;;;;;;;5860770;28;20128;-73
2023/11/10 12:43:16;;;;;;;4.88;1.92;;;;;;;;;;5879975;28;20052;-71
2023/11/10 12:46:14;;;;;;;8.50;4.18;;;;;;;;;;5885352;28;20136;-72
2023/11/10 12:49:06;;;;;;;5.05;3.03;;;;;;;;;;5885861;28;20060;-72
2023/11/10 12:52:09;;;;;;;5.30;2.92;;;;;;;;;;5885620;28;20049;-72
2023/11/10 12:55:01;;;;;;;6.80;3.67;;;;;;;;;;5884540;28;20033;-73
2023/11/10 12:57:52;;;;;;;10.32;3.90;;;;;;;;;;5885351;28;20483;-73
2023/11/10 13:00:43;;;;;;;8.85;2.03;;;;;;;;;;5885190;28;20422;-73
2023/11/10 13:03:36;;;;;;;6.40;3.97;;;;;;;;;;5885174;28;20049;-73
2023/11/10 13:06:30;;;;;;;9.25;5.68;;;;;;;;;;5885113;28;20049;-73
2023/11/10 13:09:22;;;;;;;13.57;9.43;;;;;;;;;;5885563;28;20136;-73
2023/11/10 13:12:13;;;;;;;9.48;5.63;;;;;;;;;;5884435;28;20049;-74
2023/11/10 13:15:04;;;;;;;6.97;3.65;;;;;;;;;;5885305;28;20049;-73
2023/11/10 13:17:55;;;;;;;5.22;3.30;;;;;;;;;;5885655;28;20048;-73
2023/11/10 13:20:46;;;;;;;16.45;3.88;;;;;;;;;;5885247;28;20434;-73
2023/11/10 13:23:37;;;;;;;21.33;5.82;;;;;;;;;;5883731;28;20048;-73
2023/11/10 13:26:27;;;;;;;40.42;10.98;;;;;;;;;;5884719;28;20052;-73
2023/11/10 13:29:21;;;;;;;34.55;13.70;;;;;;;;;;5885304;28;20072;-73
2023/11/10 13:32:14;;;;;;;18.73;8.55;;;;;;;;;;5886965;28;20522;-73
2023/11/10 13:35:08;;;;;;;26.17;12.60;;;;;;;;;;5889412;28;20056;-73
2023/11/10 13:37:58;;;;;;;34.88;15.80;;;;;;;;;;5889604;28;20049;-74
2023/11/10 13:40:49;;;;;;;25.75;13.35;;;;;;;;;;5888816;28;20053;-74
2023/11/10 13:43:40;;;;;;;31.90;14.00;;;;;;;;;;5888826;28;20426;-73
2023/11/10 13:46:32;;;;;;;18.80;10.20;;;;;;;;;;5879451;28;20056;-74
2023/11/10 13:49:23;;;;;;;14.40;6.30;;;;;;;;;;5865907;28;20541;-73
2023/11/10 13:52:14;;;;;;;9.23;3.78;;;;;;;;;;5880747;28;20446;-73
2023/11/10 13:55:06;;;;;;;11.75;6.53;;;;;;;;;;5889020;28;20151;-72
2023/11/10 13:57:57;;;;;;;8.02;4.00;;;;;;;;;;5887626;28;20059;-73
2023/11/10 14:00:49;;;;;;;6.10;3.78;;;;;;;;;;5888709;28;20048;-72
2023/11/10 14:03:40;;;;;;;2.63;2.25;;;;;;;;;;5888523;28;20443;-72
2023/11/10 14:06:31;;;;;;;3.55;2.40;;;;;;;;;;5888260;28;20130;-72
2023/11/10 14:09:22;;;;;;;2.08;1.88;;;;;;;;;;5888758;28;20045;-72
2023/11/10 14:12:13;;;;;;;5.32;2.95;;;;;;;;;;5887902;28;20470;-72
2023/11/10 14:15:04;;;;;;;3.47;2.75;;;;;;;;;;5888709;28;20072;-72
2023/11/10 14:17:55;;;;;;;3.22;2.63;;;;;;;;;;5888758;28;20056;-72
2023/11/10 14:20:46;;;;;;;8.18;4.15;;;;;;;;;;5888165;28;20158;-72
2023/11/10 14:23:37;;;;;;;7.70;4.05;;;;;;;;;;5888072;28;20067;-72
2023/11/10 14:26:28;;;;;;;4.95;4.00;;;;;;;;;;5887836;28;20041;-73
2023/11/10 14:29:19;;;;;;;6.60;4.63;;;;;;;;;;5888316;28;20072;-73
2023/11/10 14:32:09;;;;;;;5.53;4.47;;;;;;;;;;5887958;28;20053;-73
2023/11/10 14:35:00;;;;;;;13.93;5.15;;;;;;;;;;5887772;28;20045;-73
2023/11/10 14:37:58;;;;;;;7.43;4.82;;;;;;;;;;5888325;28;20123;-73
2023/11/10 14:40:49;;;;;;;5.57;4.78;;;;;;;;;;5887638;28;20045;-73
2023/11/10 14:43:40;;;;;;;15.93;8.77;;;;;;;;;;5887097;28;20086;-73
2023/11/10 14:46:33;;;;;;;10.38;5.75;;;;;;;;;;5887389;28;20495;-73
2023/11/10 14:49:25;;;;;;;12.27;8.20;;;;;;;;;;5887710;28;20127;-74
2023/11/10 14:52:17;;;;;;;24.58;14.90;;;;;;;;;;5887207;28;20130;-73
2023/11/10 14:55:09;;;;;;;31.48;14.65;;;;;;;;;;5887201;28;20057;-73
2023/11/10 14:58:00;;;;;;;17.45;10.85;;;;;;;;;;5887346;28;20095;-74
2023/11/10 15:00:53;;;;;;;15.27;9.73;;;;;;;;;;5887362;28;20379;-74
2023/11/10 15:03:45;;;;;;;12.05;8.23;;;;;;;;;;5885619;28;20079;-73
2023/11/10 15:06:39;;;;;;;25.77;11.55;;;;;;;;;;5887004;28;20063;-74
2023/11/10 15:09:30;;;;;;;25.10;12.45;;;;;;;;;;5887364;28;20051;-74
2023/11/10 15:12:20;;;;;;;26.27;17.65;;;;;;;;;;5886607;28;20079;-74
2023/11/10 15:15:11;;;;;;;51.80;33.03;;;;;;;;;;5886863;28;20056;-74
2023/11/10 15:18:09;;;;;;;44.53;23.15;;;;;;;;;;5885610;28;20048;-74
2023/11/10 15:21:00;;;;;;;39.42;22.83;;;;;;;;;;5886971;28;20049;-74
2023/11/10 15:23:50;;;;;;;37.80;21.55;;;;;;;;;;5886716;28;20040;-74
2023/11/10 15:26:41;;;;;;;56.75;35.13;;;;;;;;;;5885993;28;20052;-74
2023/11/10 15:29:32;;;;;;;40.75;26.67;;;;;;;;;;5886642;28;20051;-74
2023/11/10 15:32:23;;;;;;;43.92;20.38;;;;;;;;;;5884948;28;20048;-74
2023/11/10 15:35:16;;;;;;;24.92;15.93;;;;;;;;;;5886186;28;20045;-74
2023/11/10 15:38:09;;;;;;;37.78;19.00;;;;;;;;;;5886578;28;20057;-74
2023/11/10 15:41:00;;;;;;;21.70;10.98;;;;;;;;;;5886490;28;20537;-75
2023/11/10 15:43:51;;;;;;;22.92;14.70;;;;;;;;;;5886375;28;20045;-74
2023/11/10 15:46:43;;;;;;;40.55;24.00;;;;;;;;;;5886149;28;20414;-74
2023/11/10 15:49:34;;;;;;;26.67;17.15;;;;;;;;;;5886251;28;20055;-74
2023/11/10 15:52:25;;;;;;;23.80;16.65;;;;;;;;;;5885865;28;20052;-74
2023/11/10 15:55:16;;;;;;;29.20;15.52;;;;;;;;;;5884970;28;20046;-74
2023/11/10 15:58:07;;;;;;;27.65;17.17;;;;;;;;;;5885871;28;20072;-74
2023/11/10 16:00:58;;;;;;;26.50;18.73;;;;;;;;;;5886330;28;20509;-74
2023/11/10 16:03:49;;;;;;;7.68;5.68;;;;;;;;;;5885469;28;20143;-74
2023/11/10 16:06:40;;;;;;;4.05;3.65;;;;;;;;;;5885584;28;20044;-74
2023/11/10 16:09:31;;;;;;;10.05;3.70;;;;;;;;;;5885838;28;20514;-74
2023/11/10 16:12:25;;;;;;;6.47;5.88;;;;;;;;;;5885149;28;20045;-73
2023/11/10 16:15:16;;;;;;;7.28;4.63;;;;;;;;;;5885721;28;20049;-74
2023/11/10 16:18:07;;;;;;;20.35;13.95;;;;;;;;;;5885686;28;20055;-74
2023/11/10 16:20:58;;;;;;;16.15;9.63;;;;;;;;;;5885884;28;20045;-74
2023/11/10 16:23:50;;;;;;;5.80;3.78;;;;;;;;;;5885501;28;20426;-74
2023/11/10 16:26:41;;;;;;;6.00;5.18;;;;;;;;;;5884986;28;20051;-74
2023/11/10 16:29:33;;;;;;;5.30;4.35;;;;;;;;;;5885493;28;20418;-74
2023/11/10 16:32:31;;;;;;;4.30;3.78;;;;;;;;;;5885054;28;20601;-74
2023/11/10 16:35:22;;;;;;;3.10;2.00;;;;;;;;;;5885315;28;20507;-74
2023/11/10 16:38:13;;;;;;;4.55;3.50;;;;;;;;;;5862275;28;20060;-75
2023/11/10 16:41:04;;;;;;;8.00;5.05;;;;;;;;;;5868432;28;20135;-74
2023/11/10 16:43:56;;;;;;;9.48;6.63;;;;;;;;;;5884772;28;20391;-75
2023/11/10 16:46:46;;;;;;;8.15;4.20;;;;;;;;;;5861780;28;20068;-75
2023/11/10 16:49:37;;;;;;;15.90;7.55;;;;;;;;;;5862279;28;20487;-75
2023/11/10 16:52:29;;;;;;;8.70;5.82;;;;;;;;;;5861392;28;20364;-75
2023/11/10 16:55:20;;;;;;;8.48;6.18;;;;;;;;;;5861465;28;20061;-75
2023/11/10 16:58:11;;;;;;;18.67;8.55;;;;;;;;;;5862299;28;20049;-74
2023/11/10 17:01:02;;;;;;;13.57;10.25;;;;;;;;;;5861851;28;20176;-76
2023/11/10 17:03:53;;;;;;;21.63;12.35;;;;;;;;;;5862461;28;20053;-75
2023/11/10 17:06:45;;;;;;;23.38;14.75;;;;;;;;;;5864700;28;20046;-75